sensor_id;sensor_type;location;lat;lon;timestamp;P1;durP1;ratioP1;P2;durP2;ratioP2
31716;SDS011;18301;51.076;17.046;2023-02-16T00:00:46;108.07;;;41.45;;
31716;SDS011;18301;51.076;17.046;2023-02-16T00:05:49;117.15;;;40.50;;
31716;SDS011;18301;51.076;17.046;2023-02-16T00:10:51;107.03;;;40.30;;
31716;SDS011;18301;51.076;17.046;2023-02-16T00:16:18;101.68;;;40.83;;
31716;SDS011;18301;51.076;17.046;2023-02-16T00:21:21;112.72;;;41.03;;
31716;SDS011;18301;51.076;17.046;2023-02-16T00:26:24;104.38;;;39.85;;
31716;SDS011;18301;51.076;17.046;2023-02-16T00:31:28;104.35;;;41.60;;
31716;SDS011;18301;51.076;17.046;2023-02-16T00:36:33;102.78;;;39.42;;
31716;SDS011;18301;51.076;17.046;2023-02-16T00:41:34;101.50;;;40.42;;
31716;SDS011;18301;51.076;17.046;2023-02-16T00:46:51;105.85;;;41.10;;
31716;SDS011;18301;51.076;17.046;2023-02-16T00:51:52;88.90;;;37.80;;
31716;SDS011;18301;51.076;17.046;2023-02-16T00:56:54;94.15;;;38.33;;
31716;SDS011;18301;51.076;17.046;2023-02-16T01:01:55;96.35;;;38.22;;
31716;SDS011;18301;51.076;17.046;2023-02-16T01:06:57;90.93;;;36.28;;
31716;SDS011;18301;51.076;17.046;2023-02-16T01:12:18;95.63;;;37.63;;
31716;SDS011;18301;51.076;17.046;2023-02-16T01:17:22;88.85;;;35.88;;
31716;SDS011;18301;51.076;17.046;2023-02-16T01:22:24;95.45;;;36.15;;
31716;SDS011;18301;51.076;17.046;2023-02-16T01:27:26;92.05;;;37.78;;
31716;SDS011;18301;51.076;17.046;2023-02-16T01:32:28;90.50;;;36.25;;
31716;SDS011;18301;51.076;17.046;2023-02-16T01:37:29;93.95;;;37.95;;
31716;SDS011;18301;51.076;17.046;2023-02-16T01:47:52;95.40;;;39.65;;
31716;SDS011;18301;51.076;17.046;2023-02-16T01:52:56;85.20;;;36.60;;
31716;SDS011;18301;51.076;17.046;2023-02-16T01:58:25;91.28;;;37.03;;
31716;SDS011;18301;51.076;17.046;2023-02-16T02:03:36;94.88;;;39.45;;
31716;SDS011;18301;51.076;17.046;2023-02-16T02:09:01;92.57;;;37.85;;
31716;SDS011;18301;51.076;17.046;2023-02-16T02:14:17;89.38;;;37.15;;
31716;SDS011;18301;51.076;17.046;2023-02-16T02:19:24;89.95;;;37.15;;
31716;SDS011;18301;51.076;17.046;2023-02-16T02:24:32;97.90;;;38.35;;
31716;SDS011;18301;51.076;17.046;2023-02-16T02:29:55;95.13;;;38.65;;
31716;SDS011;18301;51.076;17.046;2023-02-16T02:56:18;99.50;;;39.80;;
31716;SDS011;18301;51.076;17.046;2023-02-16T03:01:39;95.03;;;40.58;;
31716;SDS011;18301;51.076;17.046;2023-02-16T03:06:49;101.97;;;41.50;;
31716;SDS011;18301;51.076;17.046;2023-02-16T03:11:53;103.75;;;40.47;;
31716;SDS011;18301;51.076;17.046;2023-02-16T03:17:18;107.10;;;42.83;;
31716;SDS011;18301;51.076;17.046;2023-02-16T03:22:42;106.47;;;40.55;;
31716;SDS011;18301;51.076;17.046;2023-02-16T03:28:03;105.10;;;42.85;;
31716;SDS011;18301;51.076;17.046;2023-02-16T03:33:26;102.32;;;41.70;;
31716;SDS011;18301;51.076;17.046;2023-02-16T03:38:29;111.05;;;43.08;;
31716;SDS011;18301;51.076;17.046;2023-02-16T03:43:31;100.15;;;42.20;;
31716;SDS011;18301;51.076;17.046;2023-02-16T03:48:32;97.63;;;41.97;;
31716;SDS011;18301;51.076;17.046;2023-02-16T03:53:34;97.88;;;40.33;;
31716;SDS011;18301;51.076;17.046;2023-02-16T03:58:35;103.72;;;41.63;;
31716;SDS011;18301;51.076;17.046;2023-02-16T04:03:37;104.60;;;42.40;;
31716;SDS011;18301;51.076;17.046;2023-02-16T04:08:38;99.55;;;41.03;;
31716;SDS011;18301;51.076;17.046;2023-02-16T04:13:40;102.07;;;41.38;;
31716;SDS011;18301;51.076;17.046;2023-02-16T04:18:41;100.20;;;41.53;;
31716;SDS011;18301;51.076;17.046;2023-02-16T04:23:43;98.28;;;41.65;;
31716;SDS011;18301;51.076;17.046;2023-02-16T04:28:44;103.68;;;41.45;;
31716;SDS011;18301;51.076;17.046;2023-02-16T04:33:46;104.40;;;40.40;;
31716;SDS011;18301;51.076;17.046;2023-02-16T04:38:47;101.85;;;41.67;;
31716;SDS011;18301;51.076;17.046;2023-02-16T04:43:48;103.00;;;42.70;;
31716;SDS011;18301;51.076;17.046;2023-02-16T04:48:50;102.07;;;42.10;;
31716;SDS011;18301;51.076;17.046;2023-02-16T04:53:51;102.68;;;40.40;;
31716;SDS011;18301;51.076;17.046;2023-02-16T04:58:54;99.32;;;41.63;;
31716;SDS011;18301;51.076;17.046;2023-02-16T05:03:56;112.75;;;43.05;;
31716;SDS011;18301;51.076;17.046;2023-02-16T05:08:57;98.07;;;41.17;;
31716;SDS011;18301;51.076;17.046;2023-02-16T05:13:59;104.53;;;43.38;;
31716;SDS011;18301;51.076;17.046;2023-02-16T05:19:19;108.50;;;45.80;;
31716;SDS011;18301;51.076;17.046;2023-02-16T05:24:20;115.78;;;45.75;;
31716;SDS011;18301;51.076;17.046;2023-02-16T05:29:22;128.10;;;49.13;;
31716;SDS011;18301;51.076;17.046;2023-02-16T05:34:23;107.53;;;43.72;;
31716;SDS011;18301;51.076;17.046;2023-02-16T05:39:25;109.90;;;42.75;;
31716;SDS011;18301;51.076;17.046;2023-02-16T05:44:27;102.35;;;42.90;;
31716;SDS011;18301;51.076;17.046;2023-02-16T05:49:28;103.75;;;43.35;;
31716;SDS011;18301;51.076;17.046;2023-02-16T05:54:30;106.55;;;42.50;;
31716;SDS011;18301;51.076;17.046;2023-02-16T05:59:31;108.45;;;42.88;;
31716;SDS011;18301;51.076;17.046;2023-02-16T06:04:33;105.07;;;42.00;;
31716;SDS011;18301;51.076;17.046;2023-02-16T06:09:34;98.88;;;41.38;;
31716;SDS011;18301;51.076;17.046;2023-02-16T06:14:36;97.65;;;42.95;;
31716;SDS011;18301;51.076;17.046;2023-02-16T06:19:38;100.93;;;41.90;;
31716;SDS011;18301;51.076;17.046;2023-02-16T06:24:39;106.22;;;43.30;;
31716;SDS011;18301;51.076;17.046;2023-02-16T06:29:40;105.53;;;42.85;;
31716;SDS011;18301;51.076;17.046;2023-02-16T06:34:42;104.10;;;43.20;;
31716;SDS011;18301;51.076;17.046;2023-02-16T06:39:43;113.35;;;46.28;;
31716;SDS011;18301;51.076;17.046;2023-02-16T06:44:45;121.45;;;47.17;;
31716;SDS011;18301;51.076;17.046;2023-02-16T06:49:46;133.68;;;49.63;;
31716;SDS011;18301;51.076;17.046;2023-02-16T06:54:48;131.43;;;50.28;;
31716;SDS011;18301;51.076;17.046;2023-02-16T06:59:49;132.30;;;48.65;;
31716;SDS011;18301;51.076;17.046;2023-02-16T07:04:51;123.63;;;46.08;;
31716;SDS011;18301;51.076;17.046;2023-02-16T07:09:53;122.13;;;48.28;;
31716;SDS011;18301;51.076;17.046;2023-02-16T07:14:54;128.18;;;49.08;;
31716;SDS011;18301;51.076;17.046;2023-02-16T07:19:56;123.28;;;47.10;;
31716;SDS011;18301;51.076;17.046;2023-02-16T07:25:00;114.97;;;45.88;;
31716;SDS011;18301;51.076;17.046;2023-02-16T07:30:01;115.47;;;47.28;;
31716;SDS011;18301;51.076;17.046;2023-02-16T07:35:03;121.07;;;50.40;;
31716;SDS011;18301;51.076;17.046;2023-02-16T07:40:05;148.60;;;56.67;;
31716;SDS011;18301;51.076;17.046;2023-02-16T07:45:07;126.05;;;50.85;;
31716;SDS011;18301;51.076;17.046;2023-02-16T07:50:09;122.18;;;51.78;;
31716;SDS011;18301;51.076;17.046;2023-02-16T07:55:11;144.88;;;59.15;;
31716;SDS011;18301;51.076;17.046;2023-02-16T08:00:12;125.25;;;51.80;;
31716;SDS011;18301;51.076;17.046;2023-02-16T08:05:15;115.65;;;49.60;;
31716;SDS011;18301;51.076;17.046;2023-02-16T08:10:16;105.28;;;43.88;;
31716;SDS011;18301;51.076;17.046;2023-02-16T08:15:18;95.32;;;41.67;;
31716;SDS011;18301;51.076;17.046;2023-02-16T08:20:20;97.32;;;40.60;;
31716;SDS011;18301;51.076;17.046;2023-02-16T08:25:28;91.03;;;38.13;;
31716;SDS011;18301;51.076;17.046;2023-02-16T08:30:29;96.97;;;39.28;;
31716;SDS011;18301;51.076;17.046;2023-02-16T08:35:31;90.10;;;36.50;;
31716;SDS011;18301;51.076;17.046;2023-02-16T08:40:33;89.30;;;37.90;;
31716;SDS011;18301;51.076;17.046;2023-02-16T08:45:34;81.95;;;36.65;;
31716;SDS011;18301;51.076;17.046;2023-02-16T08:50:36;67.80;;;31.23;;
31716;SDS011;18301;51.076;17.046;2023-02-16T08:55:37;57.22;;;26.35;;
31716;SDS011;18301;51.076;17.046;2023-02-16T09:00:39;49.63;;;22.00;;
31716;SDS011;18301;51.076;17.046;2023-02-16T09:05:44;47.78;;;21.70;;
31716;SDS011;18301;51.076;17.046;2023-02-16T09:10:49;45.53;;;21.67;;
31716;SDS011;18301;51.076;17.046;2023-02-16T09:15:50;46.22;;;21.02;;
31716;SDS011;18301;51.076;17.046;2023-02-16T09:20:51;45.30;;;20.25;;
31716;SDS011;18301;51.076;17.046;2023-02-16T09:25:53;37.17;;;17.30;;
31716;SDS011;18301;51.076;17.046;2023-02-16T09:30:54;39.65;;;18.77;;
31716;SDS011;18301;51.076;17.046;2023-02-16T09:35:56;38.88;;;19.00;;
31716;SDS011;18301;51.076;17.046;2023-02-16T09:41:03;36.28;;;18.27;;
31716;SDS011;18301;51.076;17.046;2023-02-16T09:46:07;46.70;;;18.85;;
31716;SDS011;18301;51.076;17.046;2023-02-16T09:51:20;39.17;;;18.70;;
31716;SDS011;18301;51.076;17.046;2023-02-16T09:56:35;40.58;;;19.42;;
31716;SDS011;18301;51.076;17.046;2023-02-16T10:12:24;38.88;;;18.35;;
31716;SDS011;18301;51.076;17.046;2023-02-16T10:17:31;36.10;;;17.98;;
31716;SDS011;18301;51.076;17.046;2023-02-16T10:22:44;38.63;;;18.63;;
31716;SDS011;18301;51.076;17.046;2023-02-16T10:28:04;35.38;;;17.73;;
31716;SDS011;18301;51.076;17.046;2023-02-16T10:33:16;36.33;;;17.40;;
31716;SDS011;18301;51.076;17.046;2023-02-16T10:38:37;35.92;;;16.52;;
31716;SDS011;18301;51.076;17.046;2023-02-16T10:49:08;37.25;;;18.33;;
31716;SDS011;18301;51.076;17.046;2023-02-16T10:54:17;39.05;;;19.15;;
31716;SDS011;18301;51.076;17.046;2023-02-16T10:59:24;39.40;;;18.80;;
31716;SDS011;18301;51.076;17.046;2023-02-16T11:04:36;39.17;;;19.45;;
31716;SDS011;18301;51.076;17.046;2023-02-16T11:09:43;39.85;;;19.35;;
31716;SDS011;18301;51.076;17.046;2023-02-16T11:14:51;40.58;;;17.08;;
31716;SDS011;18301;51.076;17.046;2023-02-16T11:20:02;42.22;;;20.67;;
31716;SDS011;18301;51.076;17.046;2023-02-16T11:25:17;37.03;;;18.48;;
31716;SDS011;18301;51.076;17.046;2023-02-16T11:30:27;39.25;;;18.30;;
31716;SDS011;18301;51.076;17.046;2023-02-16T11:35:30;33.95;;;16.95;;
31716;SDS011;18301;51.076;17.046;2023-02-16T11:40:40;36.45;;;17.80;;
31716;SDS011;18301;51.076;17.046;2023-02-16T11:45:56;38.30;;;18.73;;
31716;SDS011;18301;51.076;17.046;2023-02-16T11:51:02;37.60;;;18.30;;
31716;SDS011;18301;51.076;17.046;2023-02-16T12:01:33;36.47;;;18.30;;
31716;SDS011;18301;51.076;17.046;2023-02-16T12:12:17;33.10;;;15.82;;
31716;SDS011;18301;51.076;17.046;2023-02-16T12:22:46;49.42;;;21.20;;
31716;SDS011;18301;51.076;17.046;2023-02-16T12:33:10;42.83;;;20.20;;
31716;SDS011;18301;51.076;17.046;2023-02-16T12:43:38;46.60;;;21.65;;
31716;SDS011;18301;51.076;17.046;2023-02-16T12:48:50;38.50;;;19.20;;
31716;SDS011;18301;51.076;17.046;2023-02-16T12:53:56;48.15;;;22.20;;
31716;SDS011;18301;51.076;17.046;2023-02-16T12:59:04;50.28;;;22.65;;
31716;SDS011;18301;51.076;17.046;2023-02-16T13:14:36;49.78;;;22.90;;
31716;SDS011;18301;51.076;17.046;2023-02-16T13:19:43;44.35;;;21.60;;
31716;SDS011;18301;51.076;17.046;2023-02-16T13:24:53;43.20;;;21.48;;
31716;SDS011;18301;51.076;17.046;2023-02-16T13:36:03;47.65;;;23.67;;
31716;SDS011;18301;51.076;17.046;2023-02-16T13:46:39;48.60;;;21.90;;
31716;SDS011;18301;51.076;17.046;2023-02-16T13:51:44;46.93;;;23.13;;
31716;SDS011;18301;51.076;17.046;2023-02-16T13:56:47;43.35;;;21.75;;
31716;SDS011;18301;51.076;17.046;2023-02-16T14:01:49;42.92;;;19.98;;
31716;SDS011;18301;51.076;17.046;2023-02-16T14:22:23;43.28;;;21.30;;
31716;SDS011;18301;51.076;17.046;2023-02-16T14:27:40;43.70;;;21.00;;
31716;SDS011;18301;51.076;17.046;2023-02-16T14:32:44;47.13;;;22.48;;
31716;SDS011;18301;51.076;17.046;2023-02-16T14:37:59;45.17;;;22.35;;
31716;SDS011;18301;51.076;17.046;2023-02-16T14:43:03;43.80;;;21.65;;
31716;SDS011;18301;51.076;17.046;2023-02-16T14:48:16;47.90;;;21.73;;
31716;SDS011;18301;51.076;17.046;2023-02-16T15:04:31;46.47;;;21.02;;
31716;SDS011;18301;51.076;17.046;2023-02-16T15:09:33;45.10;;;21.67;;
31716;SDS011;18301;51.076;17.046;2023-02-16T15:14:43;42.85;;;20.77;;
31716;SDS011;18301;51.076;17.046;2023-02-16T15:19:48;44.92;;;22.10;;
31716;SDS011;18301;51.076;17.046;2023-02-16T15:24:58;46.40;;;20.70;;
31716;SDS011;18301;51.076;17.046;2023-02-16T15:30:36;41.13;;;20.20;;
31716;SDS011;18301;51.076;17.046;2023-02-16T15:35:36;42.83;;;20.83;;
31716;SDS011;18301;51.076;17.046;2023-02-16T15:40:39;45.88;;;21.20;;
31716;SDS011;18301;51.076;17.046;2023-02-16T15:45:40;43.83;;;20.48;;
31716;SDS011;18301;51.076;17.046;2023-02-16T15:50:42;46.80;;;21.10;;
31716;SDS011;18301;51.076;17.046;2023-02-16T15:55:45;43.97;;;21.50;;
31716;SDS011;18301;51.076;17.046;2023-02-16T16:00:47;47.33;;;22.10;;
31716;SDS011;18301;51.076;17.046;2023-02-16T16:06:07;45.67;;;21.63;;
31716;SDS011;18301;51.076;17.046;2023-02-16T16:11:09;45.78;;;22.02;;
31716;SDS011;18301;51.076;17.046;2023-02-16T16:16:11;45.45;;;21.15;;
31716;SDS011;18301;51.076;17.046;2023-02-16T16:21:25;46.10;;;22.55;;
31716;SDS011;18301;51.076;17.046;2023-02-16T16:26:48;46.83;;;22.40;;
31716;SDS011;18301;51.076;17.046;2023-02-16T16:31:56;48.35;;;22.80;;
31716;SDS011;18301;51.076;17.046;2023-02-16T16:36:58;49.08;;;23.42;;
31716;SDS011;18301;51.076;17.046;2023-02-16T16:42:06;57.72;;;26.60;;
31716;SDS011;18301;51.076;17.046;2023-02-16T16:47:29;60.83;;;27.25;;
31716;SDS011;18301;51.076;17.046;2023-02-16T16:57:33;60.83;;;28.58;;
31716;SDS011;18301;51.076;17.046;2023-02-16T17:02:34;53.80;;;26.77;;
31716;SDS011;18301;51.076;17.046;2023-02-16T17:07:35;58.85;;;25.52;;
31716;SDS011;18301;51.076;17.046;2023-02-16T17:12:37;64.35;;;28.70;;
31716;SDS011;18301;51.076;17.046;2023-02-16T17:17:38;65.10;;;29.13;;
31716;SDS011;18301;51.076;17.046;2023-02-16T17:22:40;60.58;;;28.40;;
31716;SDS011;18301;51.076;17.046;2023-02-16T17:27:41;60.88;;;27.63;;
31716;SDS011;18301;51.076;17.046;2023-02-16T17:32:43;61.30;;;27.52;;
31716;SDS011;18301;51.076;17.046;2023-02-16T17:37:44;63.78;;;27.83;;
31716;SDS011;18301;51.076;17.046;2023-02-16T17:42:46;57.67;;;27.02;;
31716;SDS011;18301;51.076;17.046;2023-02-16T17:47:49;69.43;;;30.55;;
31716;SDS011;18301;51.076;17.046;2023-02-16T17:52:52;70.13;;;30.23;;
31716;SDS011;18301;51.076;17.046;2023-02-16T17:57:57;78.57;;;32.92;;
31716;SDS011;18301;51.076;17.046;2023-02-16T18:02:58;73.18;;;30.58;;
31716;SDS011;18301;51.076;17.046;2023-02-16T18:08:00;65.47;;;29.35;;
31716;SDS011;18301;51.076;17.046;2023-02-16T18:13:02;73.30;;;32.55;;
31716;SDS011;18301;51.076;17.046;2023-02-16T18:18:05;71.60;;;32.42;;
31716;SDS011;18301;51.076;17.046;2023-02-16T18:23:07;69.68;;;31.88;;
31716;SDS011;18301;51.076;17.046;2023-02-16T18:28:12;69.97;;;31.70;;
31716;SDS011;18301;51.076;17.046;2023-02-16T18:38:23;74.18;;;31.73;;
31716;SDS011;18301;51.076;17.046;2023-02-16T18:43:25;70.60;;;31.60;;
31716;SDS011;18301;51.076;17.046;2023-02-16T18:48:27;71.32;;;32.85;;
31716;SDS011;18301;51.076;17.046;2023-02-16T18:53:28;73.18;;;31.70;;
31716;SDS011;18301;51.076;17.046;2023-02-16T18:58:29;71.40;;;31.58;;
31716;SDS011;18301;51.076;17.046;2023-02-16T19:03:31;67.72;;;31.42;;
31716;SDS011;18301;51.076;17.046;2023-02-16T19:08:33;67.07;;;30.98;;
31716;SDS011;18301;51.076;17.046;2023-02-16T19:13:34;76.40;;;33.65;;
31716;SDS011;18301;51.076;17.046;2023-02-16T19:18:36;69.95;;;31.40;;
31716;SDS011;18301;51.076;17.046;2023-02-16T19:23:37;73.53;;;31.33;;
31716;SDS011;18301;51.076;17.046;2023-02-16T19:28:39;69.38;;;31.33;;
31716;SDS011;18301;51.076;17.046;2023-02-16T19:33:41;80.78;;;34.45;;
31716;SDS011;18301;51.076;17.046;2023-02-16T19:38:43;85.05;;;35.65;;
31716;SDS011;18301;51.076;17.046;2023-02-16T19:43:44;74.07;;;33.42;;
31716;SDS011;18301;51.076;17.046;2023-02-16T19:48:46;75.35;;;33.50;;
31716;SDS011;18301;51.076;17.046;2023-02-16T19:53:48;74.72;;;32.97;;
31716;SDS011;18301;51.076;17.046;2023-02-16T19:58:50;75.20;;;32.03;;
31716;SDS011;18301;51.076;17.046;2023-02-16T20:03:53;71.57;;;30.38;;
31716;SDS011;18301;51.076;17.046;2023-02-16T20:08:57;77.72;;;33.05;;
31716;SDS011;18301;51.076;17.046;2023-02-16T20:14:00;74.78;;;32.85;;
31716;SDS011;18301;51.076;17.046;2023-02-16T20:19:02;80.53;;;35.90;;
31716;SDS011;18301;51.076;17.046;2023-02-16T20:24:04;75.00;;;33.47;;
31716;SDS011;18301;51.076;17.046;2023-02-16T20:29:07;78.78;;;35.25;;
31716;SDS011;18301;51.076;17.046;2023-02-16T20:34:09;78.57;;;34.40;;
31716;SDS011;18301;51.076;17.046;2023-02-16T20:39:11;81.13;;;35.85;;
31716;SDS011;18301;51.076;17.046;2023-02-16T20:44:13;82.35;;;37.95;;
31716;SDS011;18301;51.076;17.046;2023-02-16T20:49:14;78.18;;;35.35;;
31716;SDS011;18301;51.076;17.046;2023-02-16T20:54:16;82.45;;;36.28;;
31716;SDS011;18301;51.076;17.046;2023-02-16T20:59:18;91.63;;;40.25;;
31716;SDS011;18301;51.076;17.046;2023-02-16T21:04:19;96.15;;;43.30;;
31716;SDS011;18301;51.076;17.046;2023-02-16T21:09:21;84.32;;;39.58;;
31716;SDS011;18301;51.076;17.046;2023-02-16T21:14:22;88.75;;;40.10;;
31716;SDS011;18301;51.076;17.046;2023-02-16T21:19:24;90.10;;;38.45;;
31716;SDS011;18301;51.076;17.046;2023-02-16T21:24:25;84.57;;;38.60;;
31716;SDS011;18301;51.076;17.046;2023-02-16T21:29:27;83.20;;;37.65;;
31716;SDS011;18301;51.076;17.046;2023-02-16T21:34:28;80.93;;;36.97;;
31716;SDS011;18301;51.076;17.046;2023-02-16T21:39:30;86.18;;;37.47;;
31716;SDS011;18301;51.076;17.046;2023-02-16T21:44:50;80.13;;;36.70;;
31716;SDS011;18301;51.076;17.046;2023-02-16T21:50:12;76.65;;;35.78;;
31716;SDS011;18301;51.076;17.046;2023-02-16T21:55:13;83.85;;;36.38;;
31716;SDS011;18301;51.076;17.046;2023-02-16T22:00:34;80.55;;;36.17;;
31716;SDS011;18301;51.076;17.046;2023-02-16T22:05:36;75.22;;;35.22;;
31716;SDS011;18301;51.076;17.046;2023-02-16T22:10:37;78.95;;;36.75;;
31716;SDS011;18301;51.076;17.046;2023-02-16T22:15:39;84.57;;;38.00;;
31716;SDS011;18301;51.076;17.046;2023-02-16T22:20:40;86.20;;;37.63;;
31716;SDS011;18301;51.076;17.046;2023-02-16T22:25:42;74.95;;;34.92;;
31716;SDS011;18301;51.076;17.046;2023-02-16T22:30:43;82.18;;;36.83;;
31716;SDS011;18301;51.076;17.046;2023-02-16T22:35:45;82.93;;;36.75;;
31716;SDS011;18301;51.076;17.046;2023-02-16T22:40:47;84.15;;;36.38;;
31716;SDS011;18301;51.076;17.046;2023-02-16T22:45:48;81.40;;;34.78;;
31716;SDS011;18301;51.076;17.046;2023-02-16T22:50:56;74.65;;;34.17;;
31716;SDS011;18301;51.076;17.046;2023-02-16T22:55:59;79.75;;;34.15;;
31716;SDS011;18301;51.076;17.046;2023-02-16T23:01:01;81.80;;;34.67;;
31716;SDS011;18301;51.076;17.046;2023-02-16T23:06:10;78.10;;;34.75;;
31716;SDS011;18301;51.076;17.046;2023-02-16T23:11:13;76.45;;;33.97;;
31716;SDS011;18301;51.076;17.046;2023-02-16T23:16:17;79.30;;;34.35;;
31716;SDS011;18301;51.076;17.046;2023-02-16T23:21:22;78.95;;;33.70;;
31716;SDS011;18301;51.076;17.046;2023-02-16T23:26:29;81.07;;;33.45;;
31716;SDS011;18301;51.076;17.046;2023-02-16T23:31:32;69.72;;;31.55;;
31716;SDS011;18301;51.076;17.046;2023-02-16T23:36:35;69.70;;;31.10;;
31716;SDS011;18301;51.076;17.046;2023-02-16T23:41:38;70.88;;;32.13;;
31716;SDS011;18301;51.076;17.046;2023-02-16T23:46:39;62.35;;;29.27;;
31716;SDS011;18301;51.076;17.046;2023-02-16T23:51:42;54.50;;;24.27;;
31716;SDS011;18301;51.076;17.046;2023-02-16T23:56:43;60.58;;;27.20;;
